Keiyumaru — JL6541 — position and weather

sailwx.info

Track history (hours):
 
Tides and Currents Weather Stations Pressure Air Temp Water Temp Dewpoint Dewpoint Depression Visibility Wind Speed Wind Dir Waves Ship Positions

Keiyumaru

Last reported at 2018-Jul-11 12:50 UTC. Time now 2018-Jul-17 17:14 UTC.
Position N 34°21' E 134°27'.

Length 81 m; draft 4.8 m.

Type: Cargo ship. MMSI: 431500561.

Date/timePositionNaut miles runAvg speedWind from/ knotsBaromVisibWave heightAir tempDewpointWater temp
2018-Jul-11 12:50N 34°21' E 134°27'1412.1
2018-Jul-11 11:43N 34°13' E 134°40'912.1
2018-Jul-11 10:57N 34°06' E 134°47'812.6
2018-Jul-11 10:18N 33°60' E 134°54'412.4
2018-Jul-11 10:00N 33°57' E 134°56'612.2
2018-Jul-11 09:30N 33°52' E 135°01'612.2
2018-Jul-11 09:00N 33°47' E 135°06'21110.3
2018-Jul-10 12:37N 34°50' E 139°09'212.3
2018-Jul-10 12:29N 34°51' E 139°11'611.6
2018-Jul-10 12:00N 34°56' E 139°15'7 9.0
2018-Jul-10 11:15N 34°58' E 139°23'3 9.0
2018-Jul-10 10:56N 34°60' E 139°26'4 9.5
2018-Jul-10 10:29N 35°02' E 139°30'511.2
2018-Jul-10 10:00N 35°05' E 139°36'611.5
2018-Jul-10 09:30N 35°08' E 139°42'611.7
2018-Jul-10 09:00N 35°12' E 139°46'611.8
2018-Jul-10 08:30N 35°18' E 139°44'611.3
2018-Jul-10 08:00N 35°24' E 139°43'611.4
2018-Jul-10 07:30N 35°28' E 139°48'510.4
2018-Jul-10 07:00N 35°32' E 139°51'610.4
2018-Jul-10 06:28N 35°37' E 139°49'0 0.1
2018-Jul-10 03:54N 35°37' E 139°49'0 0.0
2018-Jul-10 03:09N 35°37' E 139°49'0 0.0
2018-Jul-10 01:45N 35°37' E 139°49'0 0.0
2018-Jul-10 01:27N 35°37' E 139°49'0 0.0
2018-Jul-10 00:54N 35°37' E 139°49'0 0.0
2018-Jul-10 00:27N 35°37' E 139°49'0 0.0
2018-Jul-09 23:39N 35°37' E 139°49'0 0.0
2018-Jul-09 23:27N 35°37' E 139°49'0 0.0
2018-Jul-09 22:42N 35°37' E 139°49'0 0.3
2018-Jul-09 22:30N 35°37' E 139°48'2 3.6
2018-Jul-09 22:00N 35°36' E 139°50'4 7.9
2018-Jul-09 21:30N 35°33' E 139°52'4 9.0
2018-Jul-09 21:01N 35°28' E 139°51'5 9.2
2018-Jul-09 20:31N 35°26' E 139°46'510.1
2018-Jul-09 20:01N 35°28' E 139°40'1 1.8
2018-Jul-09 19:29N 35°29' E 139°39'0 0.0
2018-Jul-09 18:59N 35°29' E 139°39'0 0.0
2018-Jul-09 18:29N 35°29' E 139°39'0 0.0
2018-Jul-09 17:59N 35°29' E 139°39'0 0.0
2018-Jul-09 17:29N 35°29' E 139°39'0 0.0
2018-Jul-09 16:59N 35°29' E 139°39'0 0.0
2018-Jul-09 16:29N 35°29' E 139°39'0 0.0
2018-Jul-09 15:59N 35°29' E 139°39'0 0.0
2018-Jul-09 15:29N 35°29' E 139°39'0 0.0
2018-Jul-09 14:59N 35°29' E 139°39'0 0.0
2018-Jul-09 14:29N 35°29' E 139°39'0 0.0
2018-Jul-09 13:59N 35°29' E 139°39'0 0.0
2018-Jul-09 13:29N 35°29' E 139°39'0 0.0
2018-Jul-09 12:59N 35°29' E 139°39'0 0.0
2018-Jul-09 12:29N 35°29' E 139°39'0 0.0
2018-Jul-09 11:59N 35°29' E 139°39'0 0.0
2018-Jul-09 11:29N 35°29' E 139°39'0 0.0
2018-Jul-09 10:59N 35°29' E 139°39'0 0.0
2018-Jul-09 10:29N 35°29' E 139°39'0 0.0
2018-Jul-09 09:59N 35°29' E 139°39'0 0.0
2018-Jul-09 09:29N 35°29' E 139°39'0 0.0
2018-Jul-09 08:59N 35°29' E 139°39'0 0.0
2018-Jul-09 08:29N 35°29' E 139°39'0 0.0
2018-Jul-09 07:58N 35°29' E 139°39'0 0.0
2018-Jul-09 07:28N 35°29' E 139°39'0 0.0
2018-Jul-09 06:58N 35°29' E 139°39'0 0.0
2018-Jul-09 06:28N 35°29' E 139°39'0 0.0
2018-Jul-09 05:55N 35°29' E 139°39'0 0.0
2018-Jul-09 05:28N 35°29' E 139°39'0 0.0
2018-Jul-09 04:58N 35°29' E 139°39'0 0.0
2018-Jul-09 04:28N 35°29' E 139°39'0 0.0
2018-Jul-09 03:58N 35°29' E 139°39'1 2.2
2018-Jul-09 03:30N 35°28' E 139°40'611.9
2018-Jul-09 03:00N 35°26' E 139°46'612.5
2018-Jul-09 02:30N 35°22' E 139°53'1 0.0
2018-Jul-08 08:23N 35°22' E 139°54'1 3.0
2018-Jul-08 07:59N 35°22' E 139°52'2 3.2
2018-Jul-08 07:27N 35°23' E 139°51'0 0.0
2018-Jul-08 07:00N 35°23' E 139°51'0 0.1
2018-Jul-08 06:27N 35°23' E 139°51'2 4.9
2018-Jul-08 06:00N 35°23' E 139°48'510.9
2018-Jul-08 05:30N 35°19' E 139°44'511.0
2018-Jul-08 05:00N 35°14' E 139°47'611.9
2018-Jul-08 04:30N 35°08' E 139°47'612.4
2018-Jul-08 04:00N 35°02' E 139°45'610.0
2018-Jul-08 03:23N 34°55' E 139°45'  
2018-Jul-02 05:15N 34°55' E 139°46'312.5
2018-Jul-02 05:00N 34°58' E 139°44'611.5
2018-Jul-02 04:30N 35°03' E 139°46'611.5
2018-Jul-02 04:00N 35°09' E 139°47'611.9
2018-Jul-02 03:30N 35°15' E 139°46'611.7
2018-Jul-02 03:00N 35°20' E 139°43'511.0
2018-Jul-02 02:30N 35°25' E 139°44'611.7
2018-Jul-02 02:00N 35°29' E 139°50'611.5
2018-Jul-02 01:27N 35°32' E 139°57'8 2.2
2018-Jul-01 22:06N 35°34' E 140°06'1 6.9
2018-Jul-01 21:59N 35°33' E 140°05'5 9.4
2018-Jul-01 21:29N 35°33' E 139°59'612.3
2018-Jul-01 21:00N 35°29' E 139°53'612.3
2018-Jul-01 20:30N 35°26' E 139°47'611.3
2018-Jul-01 20:00N 35°28' E 139°40'1 2.2
2018-Jul-01 19:28N 35°29' E 139°39'0 0.0
2018-Jul-01 18:58N 35°29' E 139°39'0 0.0
2018-Jul-01 18:28N 35°29' E 139°39'0 0.0
2018-Jul-01 17:58N 35°29' E 139°39'0 0.0
2018-Jul-01 17:28N 35°29' E 139°39'0 0.0
2018-Jul-01 16:58N 35°29' E 139°39'0 0.0
2018-Jul-01 16:28N 35°29' E 139°39'0 0.0
2018-Jul-01 15:58N 35°29' E 139°39'0 0.0
2018-Jul-01 15:28N 35°29' E 139°39'0 0.0
2018-Jul-01 14:58N 35°29' E 139°39'0 0.0
2018-Jul-01 14:28N 35°29' E 139°39'0 0.0
2018-Jul-01 13:58N 35°29' E 139°39'0 0.0
2018-Jul-01 13:28N 35°29' E 139°39'0 0.0
2018-Jul-01 12:58N 35°29' E 139°39'  
Track history (hours):
 
Tides and Currents Weather Stations Pressure Air Temp Water Temp Dewpoint Dewpoint Depression Visibility Wind Speed Wind Dir Waves Ship Positions

Keiyumaru

Last reported at 2018-Jul-11 12:50 UTC. Time now 2018-Jul-17 17:14 UTC.
Position N 34°21' E 134°27'.

Length 81 m; draft 4.8 m.

Type: Cargo ship. MMSI: 431500561.

Date/timePositionNaut miles runAvg speedWind from/ knotsBaromVisibWave heightAir tempDewpointWater temp
2018-Jul-11 12:50N 34°21' E 134°27'1412.1
2018-Jul-11 11:43N 34°13' E 134°40'912.1
2018-Jul-11 10:57N 34°06' E 134°47'812.6
2018-Jul-11 10:18N 33°60' E 134°54'412.4
2018-Jul-11 10:00N 33°57' E 134°56'612.2
2018-Jul-11 09:30N 33°52' E 135°01'612.2
2018-Jul-11 09:00N 33°47' E 135°06'21110.3
2018-Jul-10 12:37N 34°50' E 139°09'212.3
2018-Jul-10 12:29N 34°51' E 139°11'611.6
2018-Jul-10 12:00N 34°56' E 139°15'7 9.0
2018-Jul-10 11:15N 34°58' E 139°23'3 9.0
2018-Jul-10 10:56N 34°60' E 139°26'4 9.5
2018-Jul-10 10:29N 35°02' E 139°30'511.2
2018-Jul-10 10:00N 35°05' E 139°36'611.5
2018-Jul-10 09:30N 35°08' E 139°42'611.7
2018-Jul-10 09:00N 35°12' E 139°46'611.8
2018-Jul-10 08:30N 35°18' E 139°44'611.3
2018-Jul-10 08:00N 35°24' E 139°43'611.4
2018-Jul-10 07:30N 35°28' E 139°48'510.4
2018-Jul-10 07:00N 35°32' E 139°51'610.4
2018-Jul-10 06:28N 35°37' E 139°49'0 0.1
2018-Jul-10 03:54N 35°37' E 139°49'0 0.0
2018-Jul-10 03:09N 35°37' E 139°49'0 0.0
2018-Jul-10 01:45N 35°37' E 139°49'0 0.0
2018-Jul-10 01:27N 35°37' E 139°49'0 0.0
2018-Jul-10 00:54N 35°37' E 139°49'0 0.0
2018-Jul-10 00:27N 35°37' E 139°49'0 0.0
2018-Jul-09 23:39N 35°37' E 139°49'0 0.0
2018-Jul-09 23:27N 35°37' E 139°49'0 0.0
2018-Jul-09 22:42N 35°37' E 139°49'0 0.3
2018-Jul-09 22:30N 35°37' E 139°48'2 3.6
2018-Jul-09 22:00N 35°36' E 139°50'4 7.9
2018-Jul-09 21:30N 35°33' E 139°52'4 9.0
2018-Jul-09 21:01N 35°28' E 139°51'5 9.2
2018-Jul-09 20:31N 35°26' E 139°46'510.1
2018-Jul-09 20:01N 35°28' E 139°40'1 1.8
2018-Jul-09 19:29N 35°29' E 139°39'0 0.0
2018-Jul-09 18:59N 35°29' E 139°39'0 0.0
2018-Jul-09 18:29N 35°29' E 139°39'0 0.0
2018-Jul-09 17:59N 35°29' E 139°39'0 0.0
2018-Jul-09 17:29N 35°29' E 139°39'0 0.0
2018-Jul-09 16:59N 35°29' E 139°39'0 0.0
2018-Jul-09 16:29N 35°29' E 139°39'0 0.0
2018-Jul-09 15:59N 35°29' E 139°39'0 0.0
2018-Jul-09 15:29N 35°29' E 139°39'0 0.0
2018-Jul-09 14:59N 35°29' E 139°39'0 0.0
2018-Jul-09 14:29N 35°29' E 139°39'0 0.0
2018-Jul-09 13:59N 35°29' E 139°39'0 0.0
2018-Jul-09 13:29N 35°29' E 139°39'0 0.0
2018-Jul-09 12:59N 35°29' E 139°39'0 0.0
2018-Jul-09 12:29N 35°29' E 139°39'0 0.0
2018-Jul-09 11:59N 35°29' E 139°39'0 0.0
2018-Jul-09 11:29N 35°29' E 139°39'0 0.0
2018-Jul-09 10:59N 35°29' E 139°39'0 0.0
2018-Jul-09 10:29N 35°29' E 139°39'0 0.0
2018-Jul-09 09:59N 35°29' E 139°39'0 0.0
2018-Jul-09 09:29N 35°29' E 139°39'0 0.0
2018-Jul-09 08:59N 35°29' E 139°39'0 0.0
2018-Jul-09 08:29N 35°29' E 139°39'0 0.0
2018-Jul-09 07:58N 35°29' E 139°39'0 0.0
2018-Jul-09 07:28N 35°29' E 139°39'0 0.0
2018-Jul-09 06:58N 35°29' E 139°39'0 0.0
2018-Jul-09 06:28N 35°29' E 139°39'0 0.0
2018-Jul-09 05:55N 35°29' E 139°39'0 0.0
2018-Jul-09 05:28N 35°29' E 139°39'0 0.0
2018-Jul-09 04:58N 35°29' E 139°39'0 0.0
2018-Jul-09 04:28N 35°29' E 139°39'0 0.0
2018-Jul-09 03:58N 35°29' E 139°39'1 2.2
2018-Jul-09 03:30N 35°28' E 139°40'611.9
2018-Jul-09 03:00N 35°26' E 139°46'612.5
2018-Jul-09 02:30N 35°22' E 139°53'1 0.0
2018-Jul-08 08:23N 35°22' E 139°54'1 3.0
2018-Jul-08 07:59N 35°22' E 139°52'2 3.2
2018-Jul-08 07:27N 35°23' E 139°51'0 0.0
2018-Jul-08 07:00N 35°23' E 139°51'0 0.1
2018-Jul-08 06:27N 35°23' E 139°51'2 4.9
2018-Jul-08 06:00N 35°23' E 139°48'510.9
2018-Jul-08 05:30N 35°19' E 139°44'511.0
2018-Jul-08 05:00N 35°14' E 139°47'611.9
2018-Jul-08 04:30N 35°08' E 139°47'612.4
2018-Jul-08 04:00N 35°02' E 139°45'610.0
2018-Jul-08 03:23N 34°55' E 139°45'  
2018-Jul-02 05:15N 34°55' E 139°46'312.5
2018-Jul-02 05:00N 34°58' E 139°44'611.5
2018-Jul-02 04:30N 35°03' E 139°46'611.5
2018-Jul-02 04:00N 35°09' E 139°47'611.9
2018-Jul-02 03:30N 35°15' E 139°46'611.7
2018-Jul-02 03:00N 35°20' E 139°43'511.0
2018-Jul-02 02:30N 35°25' E 139°44'611.7
2018-Jul-02 02:00N 35°29' E 139°50'611.5
2018-Jul-02 01:27N 35°32' E 139°57'8 2.2
2018-Jul-01 22:06N 35°34' E 140°06'1 6.9
2018-Jul-01 21:59N 35°33' E 140°05'5 9.4
2018-Jul-01 21:29N 35°33' E 139°59'612.3
2018-Jul-01 21:00N 35°29' E 139°53'612.3
2018-Jul-01 20:30N 35°26' E 139°47'611.3
2018-Jul-01 20:00N 35°28' E 139°40'1 2.2
2018-Jul-01 19:28N 35°29' E 139°39'0 0.0
2018-Jul-01 18:58N 35°29' E 139°39'0 0.0
2018-Jul-01 18:28N 35°29' E 139°39'0 0.0
2018-Jul-01 17:58N 35°29' E 139°39'0 0.0
2018-Jul-01 17:28N 35°29' E 139°39'0 0.0
2018-Jul-01 16:58N 35°29' E 139°39'0 0.0
2018-Jul-01 16:28N 35°29' E 139°39'0 0.0
2018-Jul-01 15:58N 35°29' E 139°39'0 0.0
2018-Jul-01 15:28N 35°29' E 139°39'0 0.0
2018-Jul-01 14:58N 35°29' E 139°39'0 0.0
2018-Jul-01 14:28N 35°29' E 139°39'0 0.0
2018-Jul-01 13:58N 35°29' E 139°39'0 0.0
2018-Jul-01 13:28N 35°29' E 139°39'0 0.0
2018-Jul-01 12:58N 35°29' E 139°39'  

Dump ship's entire track history